Time;durP1;ratioP1;P1;durP2;ratioP2;P2;SDS_P1;SDS_P2;PMS_P1;PMS_P2;Temp;Humidity;BMP_temperature;BMP_pressure;BME280_temperature;BME280_humidity;BME280_pressure;Samples;Min_cycle;Max_cycle;Signal;HPM_P1;HPM_P2
2023/06/11 00:00:09;;;;;;;9.52;7.65;;;24.00;99.90;;;;;;5080974;28;20577;-52
2023/06/11 00:02:35;;;;;;;12.02;7.40;;;23.90;99.90;;;;;;5080714;28;20067;-52
2023/06/11 00:05:07;;;;;;;9.10;6.63;;;23.90;99.90;;;;;;5081015;28;20278;-52
2023/06/11 00:07:34;;;;;;;9.20;7.63;;;23.90;99.90;;;;;;5079358;28;20393;-52
2023/06/11 00:10:03;;;;;;;10.10;7.15;;;23.90;99.90;;;;;;5080912;28;20695;-52
2023/06/11 00:12:30;;;;;;;10.68;7.07;;;23.90;99.90;;;;;;5080056;28;20041;-52
2023/06/11 00:14:55;;;;;;;9.68;7.78;;;23.90;99.90;;;;;;5080975;28;20040;-52
2023/06/11 00:17:21;;;;;;;9.63;6.78;;;23.90;99.90;;;;;;5080263;28;20397;-52
2023/06/11 00:19:48;;;;;;;8.30;6.80;;;23.90;99.90;;;;;;5080976;28;20109;-52
2023/06/11 00:22:17;;;;;;;8.68;7.45;;;23.80;99.90;;;;;;5078810;28;20040;-52
2023/06/11 00:24:43;;;;;;;10.77;6.93;;;23.80;99.90;;;;;;5096280;27;20048;-52
2023/06/11 00:27:09;;;;;;;11.75;6.50;;;23.80;99.90;;;;;;5079774;28;20526;-52
2023/06/11 00:29:35;;;;;;;8.68;7.18;;;23.80;99.90;;;;;;5080452;28;20055;-52
2023/06/11 00:32:00;;;;;;;9.10;7.63;;;23.70;99.90;;;;;;5079930;28;20131;-52
2023/06/11 00:34:26;;;;;;;9.57;7.43;;;23.70;99.90;;;;;;5080361;28;20064;-52
2023/06/11 00:36:52;;;;;;;12.30;6.35;;;23.70;99.90;;;;;;5080428;28;20041;-52
2023/06/11 00:39:18;;;;;;;9.48;6.22;;;23.70;99.90;;;;;;5080454;28;20785;-52
2023/06/11 00:41:48;;;;;;;8.55;6.93;;;23.60;99.90;;;;;;5079013;28;20071;-52
2023/06/11 00:44:18;;;;;;;15.23;6.35;;;23.60;99.90;;;;;;5080358;28;20044;-52
2023/06/11 00:46:48;;;;;;;10.00;6.47;;;23.60;99.90;;;;;;5080092;28;20042;-52
2023/06/11 00:49:14;;;;;;;8.57;6.75;;;23.60;99.90;;;;;;5078854;28;20052;-53
2023/06/11 00:51:45;;;;;;;12.00;6.65;;;23.50;99.90;;;;;;5095290;27;20044;-52
2023/06/11 00:54:12;;;;;;;11.77;6.53;;;23.50;99.90;;;;;;5079693;28;20155;-52
2023/06/11 00:56:44;;;;;;;8.85;6.22;;;23.50;99.90;;;;;;5079956;28;20044;-52
2023/06/11 00:59:13;;;;;;;11.52;7.05;;;23.50;99.90;;;;;;5078365;28;20045;-52
2023/06/11 01:01:45;;;;;;;11.82;6.78;;;23.50;99.90;;;;;;5079593;28;20040;-52
2023/06/11 01:04:18;;;;;;;9.88;6.82;;;23.50;99.90;;;;;;5079241;28;20051;-52
2023/06/11 01:06:51;;;;;;;12.27;6.88;;;23.50;99.90;;;;;;5080010;28;20041;-51
2023/06/11 01:09:22;;;;;;;11.27;6.32;;;23.50;99.90;;;;;;5078559;28;20048;-52
2023/06/11 01:11:54;;;;;;;17.00;7.20;;;23.50;99.90;;;;;;5079202;28;20028;-52
2023/06/11 01:14:20;;;;;;;11.40;6.53;;;23.50;99.90;;;;;;5078921;28;20118;-52
2023/06/11 01:17:02;;;;;;;21.42;7.53;;;23.50;99.90;;;;;;5078265;28;20561;-52
2023/06/11 01:19:28;;;;;;;;;;;23.40;99.90;;;;;;5079265;28;20372;-52
2023/06/11 01:22:00;;;;;;;12.52;7.78;;;23.40;99.90;;;;;;5078945;27;19920;-52
2023/06/11 01:24:40;;;;;;;16.98;8.68;;;23.30;99.90;;;;;;5079014;28;20048;-52
2023/06/11 01:27:21;;;;;;;10.07;8.07;;;23.40;99.90;;;;;;5079293;28;20056;-52
2023/06/11 01:29:49;;;;;;;12.88;8.02;;;23.40;99.90;;;;;;5079274;28;20052;-52
2023/06/11 01:32:17;;;;;;;13.10;9.40;;;23.30;99.90;;;;;;5078060;28;20124;-51
2023/06/11 01:34:43;;;;;;;15.38;8.85;;;23.20;99.90;;;;;;5079105;28;20052;-52
2023/06/11 01:37:14;;;;;;;14.63;9.90;;;23.10;99.90;;;;;;5079068;28;20036;-52
2023/06/11 01:39:45;;;;;;;;;;;23.00;99.90;;;;;;5078151;28;20052;-52
2023/06/11 01:42:11;;;;;;;14.80;9.70;;;23.00;99.90;;;;;;5079509;28;20326;-52
2023/06/11 01:44:37;;;;;;;18.60;10.02;;;22.90;99.90;;;;;;5094407;27;20062;-51
2023/06/11 01:47:03;;;;;;;17.75;9.68;;;22.90;99.90;;;;;;5078939;28;20110;-52
2023/06/11 01:49:28;;;;;;;16.27;9.25;;;23.00;99.90;;;;;;5078569;28;20044;-52
2023/06/11 01:51:54;;;;;;;16.70;10.13;;;23.00;99.90;;;;;;5079076;28;20585;-52
2023/06/11 01:54:20;;;;;;;17.45;10.27;;;23.00;99.90;;;;;;5078920;28;20048;-52
2023/06/11 01:56:46;;;;;;;15.25;9.18;;;23.00;99.90;;;;;;5078445;28;20046;-52
2023/06/11 01:59:17;;;;;;;14.80;9.77;;;23.00;99.90;;;;;;5078192;28;20044;-52
2023/06/11 02:01:43;;;;;;;16.80;10.10;;;22.90;99.90;;;;;;5079274;28;20567;-52
2023/06/11 02:04:09;;;;;;;14.27;10.27;;;22.90;99.90;;;;;;5078771;28;20040;-52
2023/06/11 02:06:34;;;;;;;21.05;11.20;;;22.90;99.90;;;;;;5094093;27;20516;-52
2023/06/11 02:09:00;;;;;;;17.77;11.77;;;22.80;99.90;;;;;;5078606;28;20044;-52
2023/06/11 02:11:26;;;;;;;18.20;10.25;;;22.80;99.90;;;;;;5079027;28;20512;-52
2023/06/11 02:13:52;;;;;;;16.20;10.00;;;;;;;;;;5078261;28;20519;-51
2023/06/11 02:16:17;;;;;;;16.38;9.48;;;22.70;99.90;;;;;;5078849;28;20036;-52
2023/06/11 02:18:43;;;;;;;17.48;10.07;;;22.60;99.90;;;;;;5078528;28;20056;-52
2023/06/11 02:21:09;;;;;;;13.85;10.45;;;22.50;99.90;;;;;;5077402;28;20044;-52
2023/06/11 02:23:35;;;;;;;22.42;11.10;;;22.50;99.90;;;;;;5076906;28;20603;-52
2023/06/11 02:26:00;;;;;;;15.50;9.38;;;22.50;99.90;;;;;;5094184;27;20041;-52
2023/06/11 02:28:26;;;;;;;17.67;8.93;;;22.50;99.90;;;;;;5077636;28;20666;-52
2023/06/11 02:30:51;;;;;;;17.27;10.02;;;22.50;99.90;;;;;;5080969;28;20040;-51
2023/06/11 02:33:17;;;;;;;18.17;9.35;;;22.50;99.90;;;;;;5081143;28;20063;-52
2023/06/11 02:35:43;;;;;;;17.45;10.52;;;22.40;99.90;;;;;;5082147;28;21030;-52
2023/06/11 02:38:09;;;;;;;16.13;9.52;;;22.40;99.90;;;;;;5081214;28;20049;-52
2023/06/11 02:40:34;;;;;;;17.80;10.65;;;22.40;99.90;;;;;;5081073;28;20503;-52
2023/06/11 02:43:00;;;;;;;18.92;10.23;;;22.30;99.90;;;;;;5079902;28;20060;-52
2023/06/11 02:45:26;;;;;;;15.40;11.38;;;22.30;99.90;;;;;;5081652;28;20041;-52
2023/06/11 02:47:52;;;;;;;18.23;10.63;;;22.40;99.90;;;;;;5081234;28;20115;-52
2023/06/11 02:50:17;;;;;;;16.73;10.77;;;22.30;99.90;;;;;;5081854;28;20044;-52
2023/06/11 02:52:43;;;;;;;18.67;12.05;;;22.20;99.90;;;;;;5095915;27;20044;-52
2023/06/11 02:55:09;;;;;;;20.85;12.05;;;22.20;99.90;;;;;;5082074;28;20048;-52
2023/06/11 02:57:35;;;;;;;22.30;13.43;;;22.10;99.90;;;;;;5092519;27;20607;-52
2023/06/11 03:00:00;;;;;;;18.38;12.05;;;22.10;99.90;;;;;;5081199;28;20443;-52
2023/06/11 03:02:26;;;;;;;19.05;11.77;;;22.10;99.90;;;;;;5080718;28;20078;-52
2023/06/11 03:04:52;;;;;;;25.08;12.85;;;22.00;99.90;;;;;;5081409;28;20048;-52
2023/06/11 03:07:17;;;;;;;20.58;12.10;;;22.00;99.90;;;;;;5080347;28;20458;-52
2023/06/11 03:09:43;;;;;;;24.17;12.18;;;21.90;99.90;;;;;;5097220;27;20152;-52
2023/06/11 03:12:09;;;;;;;21.33;12.90;;;21.90;99.90;;;;;;5082053;28;20043;-52
2023/06/11 03:14:35;;;;;;;27.30;12.57;;;22.00;99.90;;;;;;5081434;28;20076;-52
2023/06/11 03:17:00;;;;;;;25.58;13.93;;;21.90;99.90;;;;;;5080492;28;20049;-52
2023/06/11 03:19:26;;;;;;;19.30;12.27;;;21.90;99.90;;;;;;5080867;28;20551;-52
2023/06/11 03:21:52;;;;;;;20.50;12.98;;;21.90;99.90;;;;;;5081593;28;20044;-52
2023/06/11 03:24:17;;;;;;;25.45;11.40;;;21.80;99.90;;;;;;5096648;27;20052;-52
2023/06/11 03:26:44;;;;;;;23.98;13.55;;;21.80;99.90;;;;;;5080910;28;20058;-52
2023/06/11 03:29:09;;;;;;;25.15;13.52;;;21.80;99.90;;;;;;5081320;28;20116;-52
2023/06/11 03:31:37;;;;;;;23.85;12.77;;;21.80;99.90;;;;;;5079982;28;20045;-52
2023/06/11 03:34:03;;;;;;;22.45;13.55;;;21.80;99.90;;;;;;5095887;27;20040;-52
2023/06/11 03:36:28;;;;;;;23.58;13.88;;;21.80;99.90;;;;;;5081663;28;20052;-52
2023/06/11 03:38:54;;;;;;;14.77;11.18;;;21.80;99.90;;;;;;5080857;27;20579;-52
2023/06/11 03:41:20;;;;;;;16.83;11.45;;;21.80;99.90;;;;;;5080084;28;20131;-52
2023/06/11 03:43:46;;;;;;;22.92;13.00;;;21.80;99.90;;;;;;5080766;28;20716;-52
2023/06/11 03:46:11;;;;;;;24.92;13.27;;;21.80;99.90;;;;;;5079606;28;20138;-52
2023/06/11 03:48:37;;;;;;;29.05;14.52;;;21.80;99.90;;;;;;5080361;28;20048;-52
2023/06/11 03:51:03;;;;;;;24.15;13.35;;;21.80;99.90;;;;;;5079858;28;20139;-52
2023/06/11 03:53:29;;;;;;;27.10;12.48;;;21.80;99.90;;;;;;5080233;27;20535;-52
2023/06/11 03:55:55;;;;;;;23.30;13.13;;;21.80;99.90;;;;;;5080689;28;20048;-52
2023/06/11 03:58:21;;;;;;;30.33;13.63;;;21.80;99.90;;;;;;5094871;27;20068;-51
2023/06/11 04:00:47;;;;;;;22.58;12.98;;;21.80;99.90;;;;;;5079923;28;20880;-52
2023/06/11 04:03:12;;;;;;;27.10;13.60;;;21.80;99.90;;;;;;5079849;28;20036;-52
2023/06/11 04:05:38;;;;;;;27.80;14.82;;;21.80;99.90;;;;;;5079234;28;20049;-52
2023/06/11 04:08:04;;;;;;;31.48;13.90;;;21.80;99.90;;;;;;5079289;28;20390;-52
2023/06/11 04:10:30;;;;;;;44.05;16.52;;;21.80;99.90;;;;;;5080433;28;20099;-52
2023/06/11 04:12:56;;;;;;;29.63;13.20;;;21.80;99.90;;;;;;5079103;28;20045;-52
2023/06/11 04:15:22;;;;;;;28.45;13.80;;;21.80;99.90;;;;;;5080471;28;20076;-51
2023/06/11 04:17:47;;;;;;;29.83;14.88;;;21.90;99.90;;;;;;5079832;28;20074;-52
2023/06/11 04:20:13;;;;;;;20.23;14.05;;;21.80;99.90;;;;;;5079929;28;20151;-51
2023/06/11 04:22:39;;;;;;;32.47;14.05;;;21.80;99.90;;;;;;5079872;28;20055;-52
2023/06/11 04:25:06;;;;;;;24.90;15.48;;;21.80;99.90;;;;;;5078201;28;20052;-52
2023/06/11 04:27:33;;;;;;;22.90;14.15;;;21.90;99.90;;;;;;5079536;28;20094;-52
2023/06/11 04:30:00;;;;;;;24.52;14.55;;;21.90;99.90;;;;;;5080721;28;20044;-53
2023/06/11 04:32:27;;;;;;;28.17;13.10;;;21.80;99.90;;;;;;5080257;28;20049;-52
2023/06/11 04:34:56;;;;;;;29.20;12.80;;;21.80;99.90;;;;;;5081119;28;20048;-52
2023/06/11 04:37:24;;;;;;;20.05;13.02;;;21.90;99.90;;;;;;5080088;28;20131;-52
2023/06/11 04:39:49;;;;;;;24.48;12.38;;;21.80;99.90;;;;;;5080597;28;20467;-52
2023/06/11 04:42:16;;;;;;;23.23;13.80;;;21.70;99.90;;;;;;5078953;28;20090;-51
2023/06/11 04:44:41;;;;;;;24.13;13.18;;;21.70;99.90;;;;;;5080185;28;20056;-52
2023/06/11 04:47:08;;;;;;;25.50;13.00;;;21.70;99.90;;;;;;5079670;28;20510;-52
2023/06/11 04:49:33;;;;;;;20.27;12.73;;;21.70;99.90;;;;;;5080203;28;20044;-52
2023/06/11 04:51:59;;;;;;;25.67;13.88;;;21.60;99.90;;;;;;5096150;27;20459;-52
2023/06/11 04:54:27;;;;;;;21.98;12.70;;;21.70;99.90;;;;;;5078615;28;20076;-52
2023/06/11 04:56:52;;;;;;;18.77;12.07;;;21.60;99.90;;;;;;5078853;28;20056;-52
2023/06/11 04:59:18;;;;;;;18.85;13.43;;;21.70;99.90;;;;;;5077813;28;20040;-52
2023/06/11 05:01:47;;;;;;;21.25;12.52;;;21.60;99.90;;;;;;5079722;27;20120;-52
2023/06/11 05:04:16;;;;;;;25.63;11.93;;;21.60;99.90;;;;;;5079499;28;20049;-52
2023/06/11 05:06:44;;;;;;;23.98;14.07;;;21.60;99.90;;;;;;5078939;28;20086;-52
2023/06/11 05:09:14;;;;;;;21.58;13.10;;;21.60;99.90;;;;;;5079452;28;20135;-52
2023/06/11 05:11:44;;;;;;;22.63;11.75;;;21.70;99.90;;;;;;5079652;28;20095;-52
2023/06/11 05:14:12;;;;;;;19.83;11.82;;;21.70;99.90;;;;;;5079282;28;20139;-52
2023/06/11 05:16:39;;;;;;;22.63;14.07;;;21.60;99.90;;;;;;5077321;28;20114;-52
2023/06/11 05:19:05;;;;;;;21.73;13.77;;;21.50;99.90;;;;;;5079252;28;20045;-52
2023/06/11 05:21:31;;;;;;;18.95;13.15;;;21.50;99.90;;;;;;5078770;28;20287;-53
2023/06/11 05:24:06;;;;;;;23.10;13.68;;;21.60;99.90;;;;;;5078520;28;20092;-52
2023/06/11 05:26:36;;;;;;;26.90;15.52;;;21.60;99.90;;;;;;5078307;28;20657;-52
2023/06/11 05:29:03;;;;;;;22.92;13.35;;;21.50;99.90;;;;;;5078963;28;20147;-52
2023/06/11 05:31:35;;;;;;;19.73;14.15;;;21.50;99.90;;;;;;5079778;28;20521;-52
2023/06/11 05:34:01;;;;;;;30.00;14.80;;;21.50;99.90;;;;;;5077464;28;20086;-51
2023/06/11 05:36:27;;;;;;;24.27;13.88;;;21.50;99.90;;;;;;5079696;28;20141;-52
2023/06/11 05:38:53;;;;;;;23.75;14.48;;;21.50;99.90;;;;;;5078779;28;20171;-51
2023/06/11 05:41:20;;;;;;;28.30;15.48;;;21.50;99.90;;;;;;5079819;28;20191;-52
2023/06/11 05:43:46;;;;;;;30.85;14.95;;;21.50;99.90;;;;;;5078831;28;20053;-52
2023/06/11 05:46:13;;;;;;;22.83;13.70;;;21.50;99.90;;;;;;5078836;28;20141;-52
2023/06/11 05:48:41;;;;;;;23.10;14.55;;;21.60;99.90;;;;;;5079524;28;21194;-51
2023/06/11 05:51:07;;;;;;;27.48;14.75;;;21.60;99.90;;;;;;5077996;28;20044;-52
2023/06/11 05:53:32;;;;;;;33.78;15.63;;;21.60;99.90;;;;;;5078897;28;20488;-52
2023/06/11 05:56:03;;;;;;;37.10;16.08;;;21.60;99.90;;;;;;5079269;28;20064;-53
2023/06/11 05:58:33;;;;;;;23.35;15.05;;;21.70;99.90;;;;;;5079488;28;20041;-52
2023/06/11 06:01:03;;;;;;;32.08;16.05;;;21.90;99.90;;;;;;5079087;28;20110;-53
2023/06/11 06:03:33;;;;;;;30.05;16.75;;;22.00;99.90;;;;;;5078982;28;20074;-52
2023/06/11 06:06:01;;;;;;;29.80;17.17;;;22.00;99.90;;;;;;5069056;28;20052;-52
2023/06/11 06:08:30;;;;;;;31.10;17.70;;;22.10;99.90;;;;;;5078542;28;20040;-53
2023/06/11 06:10:57;;;;;;;31.80;17.70;;;22.10;99.90;;;;;;5078216;28;20106;-52
2023/06/11 06:13:26;;;;;;;30.52;16.55;;;22.20;99.90;;;;;;5078530;28;20045;-52
2023/06/11 06:15:55;;;;;;;29.42;18.98;;;22.20;99.90;;;;;;5078282;28;20119;-52
2023/06/11 06:18:21;;;;;;;29.38;18.15;;;22.20;99.90;;;;;;5078683;28;20107;-52
2023/06/11 06:20:46;;;;;;;28.52;18.63;;;22.10;99.90;;;;;;5078697;28;20037;-52
2023/06/11 06:23:12;;;;;;;30.65;17.85;;;22.10;99.90;;;;;;5077023;28;20559;-52
2023/06/11 06:25:41;;;;;;;27.20;17.58;;;22.00;99.90;;;;;;5078677;28;20060;-52
2023/06/11 06:28:07;;;;;;;33.05;19.73;;;22.00;99.90;;;;;;5078819;28;20533;-52
2023/06/11 06:30:33;;;;;;;30.75;19.15;;;22.00;99.90;;;;;;5077811;28;20151;-52
2023/06/11 06:32:59;;;;;;;33.05;18.55;;;22.00;99.90;;;;;;5077831;28;20044;-52
2023/06/11 06:35:25;;;;;;;27.90;17.48;;;22.10;99.90;;;;;;5077731;28;20048;-52
2023/06/11 06:37:51;;;;;;;40.28;20.17;;;22.00;99.90;;;;;;5078524;28;20064;-52
2023/06/11 06:40:17;;;;;;;31.92;19.30;;;22.00;99.90;;;;;;5076890;28;20123;-52
2023/06/11 06:42:43;;;;;;;37.85;19.90;;;21.90;99.90;;;;;;5078261;28;20040;-52
2023/06/11 06:45:09;;;;;;;32.03;19.48;;;21.90;99.90;;;;;;5077024;28;20041;-52
2023/06/11 06:47:35;;;;;;;41.28;20.00;;;21.90;99.90;;;;;;5078267;28;20049;-52
2023/06/11 06:50:00;;;;;;;37.53;19.30;;;21.90;99.90;;;;;;5077512;28;20040;-52
2023/06/11 06:52:27;;;;;;;33.45;20.08;;;21.90;99.90;;;;;;5077136;28;20049;-52
2023/06/11 06:54:53;;;;;;;34.20;19.58;;;21.80;99.90;;;;;;5077259;28;20131;-52
2023/06/11 06:57:19;;;;;;;31.48;20.13;;;21.80;99.90;;;;;;5092313;27;20051;-52
2023/06/11 06:59:44;;;;;;;42.20;21.63;;;21.70;99.90;;;;;;5077587;28;20041;-52
2023/06/11 07:02:10;;;;;;;33.70;21.38;;;21.70;99.90;;;;;;5077319;28;20245;-52
2023/06/11 07:04:36;;;;;;;38.65;21.45;;;21.70;99.90;;;;;;5077087;28;20094;-52
2023/06/11 07:07:02;;;;;;;33.70;20.42;;;21.80;99.90;;;;;;5093263;27;20056;-52
2023/06/11 07:09:28;;;;;;;36.88;23.05;;;21.80;99.90;;;;;;5077707;28;20044;-51
2023/06/11 07:11:54;;;;;;;38.22;18.98;;;21.80;99.90;;;;;;5077928;28;20045;-52
2023/06/11 07:14:20;;;;;;;41.17;20.83;;;21.80;99.90;;;;;;5075920;28;20040;-52
2023/06/11 07:16:45;;;;;;;37.03;22.70;;;21.90;99.90;;;;;;5078778;28;20060;-51
2023/06/11 07:19:11;;;;;;;32.80;20.50;;;21.80;99.90;;;;;;5081416;28;20127;-52
2023/06/11 07:21:37;;;;;;;34.38;20.35;;;21.90;99.90;;;;;;5081291;28;20041;-52
2023/06/11 07:24:07;;;;;;;34.47;20.33;;;22.00;99.90;;;;;;5080762;28;20060;-51
2023/06/11 07:26:33;;;;;;;40.47;22.05;;;22.10;99.90;;;;;;5081415;28;20091;-52
2023/06/11 07:28:59;;;;;;;29.40;18.27;;;22.20;99.90;;;;;;5080891;28;20044;-52
2023/06/11 07:31:26;;;;;;;34.40;21.20;;;22.20;99.90;;;;;;5080194;28;20053;-52
2023/06/11 07:33:52;;;;;;;37.05;21.95;;;22.30;99.90;;;;;;5079492;28;20052;-52
2023/06/11 07:36:18;;;;;;;31.98;21.65;;;22.40;99.90;;;;;;5081527;28;20071;-52
2023/06/11 07:38:44;;;;;;;40.35;23.80;;;22.40;99.90;;;;;;5079273;28;20049;-52
2023/06/11 07:41:11;;;;;;;38.83;22.83;;;22.50;99.90;;;;;;5080936;28;20132;-51
2023/06/11 07:43:36;;;;;;;36.22;20.42;;;22.60;99.90;;;;;;5071943;28;20047;-51
2023/06/11 07:46:03;;;;;;;35.97;22.35;;;22.70;99.90;;;;;;5081438;28;20043;-51
2023/06/11 07:48:29;;;;;;;35.60;20.85;;;22.90;99.90;;;;;;5079734;28;20147;-51
2023/06/11 07:50:55;;;;;;;36.72;21.67;;;23.00;99.90;;;;;;5096467;27;20044;-52
2023/06/11 07:53:21;;;;;;;36.33;22.45;;;23.10;99.90;;;;;;5080568;28;20098;-51
2023/06/11 07:55:49;;;;;;;36.78;21.08;;;23.10;99.90;;;;;;5081192;28;20036;-51
2023/06/11 07:58:15;;;;;;;31.13;21.55;;;23.10;99.90;;;;;;5079823;28;20040;-51
2023/06/11 08:00:41;;;;;;;33.75;20.70;;;23.10;99.90;;;;;;5081408;28;20045;-51
2023/06/11 08:03:08;;;;;;;29.23;18.67;;;23.20;99.90;;;;;;5079726;28;20036;-51
2023/06/11 08:05:34;;;;;;;34.42;20.52;;;23.20;99.90;;;;;;5079055;28;20113;-52
2023/06/11 08:08:00;;;;;;;35.78;21.45;;;23.20;99.90;;;;;;5080376;28;20062;-51
2023/06/11 08:10:25;;;;;;;34.60;21.27;;;23.30;99.90;;;;;;5080286;28;20044;-51
2023/06/11 08:12:51;;;;;;;34.08;21.13;;;23.40;99.90;;;;;;5079099;28;20218;-52
2023/06/11 08:15:17;;;;;;;35.65;21.05;;;23.50;99.90;;;;;;5080145;28;20529;-51
2023/06/11 08:17:43;;;;;;;31.58;20.25;;;23.50;99.90;;;;;;5079829;28;20044;-51
2023/06/11 08:20:09;;;;;;;39.47;21.80;;;23.60;99.90;;;;;;5079978;28;20519;-51
2023/06/11 08:22:35;;;;;;;32.60;21.90;;;23.50;99.90;;;;;;5078974;28;20052;-51
2023/06/11 08:25:01;;;;;;;35.20;21.52;;;23.40;99.90;;;;;;5078458;28;20482;-51
2023/06/11 08:27:26;;;;;;;32.35;20.40;;;23.30;99.90;;;;;;5094727;27;20183;-51
2023/06/11 08:29:52;;;;;;;33.33;22.13;;;23.30;99.90;;;;;;5080223;27;20083;-51
2023/06/11 08:32:18;;;;;;;35.97;22.52;;;23.30;99.90;;;;;;5079635;28;20336;-51
2023/06/11 08:34:43;;;;;;;33.95;21.38;;;23.20;99.90;;;;;;5095085;27;20411;-51
2023/06/11 08:37:09;;;;;;;33.55;21.23;;;23.00;99.90;;;;;;5079751;28;20126;-51
2023/06/11 08:39:35;;;;;;;33.75;20.25;;;23.00;99.90;;;;;;5080042;27;20048;-51
2023/06/11 08:42:01;;;;;;;36.33;20.83;;;23.00;99.90;;;;;;5077937;28;20040;-51
2023/06/11 08:44:27;;;;;;;32.90;20.98;;;23.00;99.90;;;;;;5079925;28;20178;-51
2023/06/11 08:46:55;;;;;;;32.55;20.63;;;23.00;99.90;;;;;;5079892;28;20127;-51
2023/06/11 08:49:22;;;;;;;31.45;18.83;;;23.00;99.90;;;;;;5079084;28;20048;-51
2023/06/11 08:51:49;;;;;;;40.65;22.63;;;23.10;99.90;;;;;;5078283;28;20401;-51
2023/06/11 08:54:16;;;;;;;37.88;21.92;;;23.10;99.90;;;;;;5095278;28;20041;-51
2023/06/11 08:56:43;;;;;;;36.28;21.95;;;23.10;99.90;;;;;;5079538;28;20047;-51
2023/06/11 08:59:09;;;;;;;33.17;20.85;;;23.10;99.90;;;;;;5079100;28;20050;-51
2023/06/11 09:01:35;;;;;;;31.33;20.20;;;23.00;99.90;;;;;;5079464;27;20830;-51
2023/06/11 09:04:01;;;;;;;34.00;20.58;;;23.10;99.90;;;;;;5079940;28;20036;-51
2023/06/11 09:06:28;;;;;;;39.63;22.45;;;23.20;99.90;;;;;;5078237;27;20041;-51
2023/06/11 09:08:58;;;;;;;37.03;22.02;;;23.40;99.90;;;;;;5078572;28;20041;-51
2023/06/11 09:11:23;;;;;;;42.63;22.95;;;23.50;99.90;;;;;;5079310;28;20135;-51
2023/06/11 09:13:49;;;;;;;32.35;19.52;;;23.60;99.90;;;;;;5079587;28;20051;-51
2023/06/11 09:16:15;;;;;;;36.13;22.35;;;23.60;99.90;;;;;;5078718;27;20132;-51
2023/06/11 09:18:43;;;;;;;33.35;21.77;;;23.60;99.90;;;;;;5079996;28;20041;-51
2023/06/11 09:21:11;;;;;;;33.50;21.23;;;23.50;99.90;;;;;;5079382;28;20037;-51
2023/06/11 09:23:38;;;;;;;31.88;20.40;;;23.60;99.90;;;;;;5079436;28;20048;-51
2023/06/11 09:26:04;;;;;;;38.75;23.10;;;23.70;99.90;;;;;;5079156;28;20036;-51
2023/06/11 09:28:35;;;;;;;30.35;21.38;;;23.80;99.90;;;;;;5079331;28;20551;-51
2023/06/11 09:31:02;;;;;;;29.03;20.83;;;23.90;99.90;;;;;;5079234;28;20523;-51
2023/06/11 09:33:29;;;;;;;29.98;19.60;;;23.90;99.90;;;;;;5078228;28;20060;-51
2023/06/11 09:35:55;;;;;;;28.27;17.92;;;24.00;99.90;;;;;;5079720;27;20046;-51
2023/06/11 09:38:21;;;;;;;28.83;18.92;;;24.00;99.90;;;;;;5077131;28;20158;-51
2023/06/11 09:40:52;;;;;;;33.47;21.70;;;24.10;99.90;;;;;;5078854;28;20052;-51
2023/06/11 09:43:21;;;;;;;28.63;20.50;;;24.00;99.90;;;;;;5069358;28;20707;-51
2023/06/11 09:45:55;;;;;;;31.08;18.98;;;24.20;99.90;;;;;;5077975;28;20259;-51
2023/06/11 09:48:24;;;;;;;26.35;19.60;;;24.20;99.90;;;;;;5077130;28;20049;-51
2023/06/11 09:50:52;;;;;;;32.47;19.48;;;24.40;99.90;;;;;;5093703;27;20124;-51
2023/06/11 09:53:19;;;;;;;26.75;17.15;;;24.50;99.90;;;;;;5077559;28;20506;-51
2023/06/11 09:55:50;;;;;;;32.17;20.15;;;24.70;99.90;;;;;;5078763;28;20040;-51
2023/06/11 09:58:22;;;;;;;30.07;18.20;;;24.70;99.90;;;;;;5079067;28;20046;-51
2023/06/11 10:00:58;;;;;;;27.58;16.95;;;24.90;99.90;;;;;;5093243;27;20259;-51
2023/06/11 10:03:24;;;;;;;27.05;16.83;;;25.00;99.90;;;;;;5077453;28;20860;-51
2023/06/11 10:05:51;;;;;;;23.13;16.02;;;25.10;99.90;;;;;;5077097;28;20051;-51
2023/06/11 10:08:20;;;;;;;31.98;16.83;;;25.10;99.90;;;;;;5078228;28;20048;-51
2023/06/11 10:10:56;;;;;;;27.45;17.92;;;25.30;99.90;;;;;;5079260;28;20539;-51
2023/06/11 10:13:32;;;;;;;30.00;17.15;;;25.30;99.90;;;;;;5078155;28;20497;-51
2023/06/11 10:16:08;;;;;;;24.00;17.23;;;25.40;99.90;;;;;;5078362;28;21393;-51
2023/06/11 10:18:34;;;;;;;24.20;17.58;;;25.50;99.90;;;;;;5078571;28;20040;-51
2023/06/11 10:21:02;;;;;;;23.05;15.52;;;25.60;99.90;;;;;;5078051;28;20605;-52
2023/06/11 10:23:40;;;;;;;28.73;19.40;;;25.70;99.90;;;;;;5077663;28;20140;-51
2023/06/11 10:26:06;;;;;;;21.60;15.35;;;25.70;99.90;;;;;;5068857;28;20094;-52
2023/06/11 10:28:49;;;;;;;25.70;18.23;;;25.50;99.90;;;;;;5078560;28;20049;-51
2023/06/11 10:31:28;;;;;;;22.55;14.18;;;25.50;99.90;;;;;;5078528;28;20049;-51
2023/06/11 10:34:04;;;;;;;23.27;16.45;;;25.50;99.90;;;;;;5078471;28;20040;-52
2023/06/11 10:36:38;;;;;;;25.10;17.27;;;25.50;99.90;;;;;;5078713;28;20772;-51
2023/06/11 10:39:09;;;;;;;26.13;17.58;;;25.50;99.90;;;;;;5070181;28;20599;-52
2023/06/11 10:41:43;;;;;;;24.10;16.30;;;25.50;99.90;;;;;;5077458;28;20040;-51
2023/06/11 10:44:10;;;;;;;23.40;15.85;;;25.60;99.90;;;;;;5077635;28;20134;-51
2023/06/11 10:46:50;;;;;;;23.45;14.77;;;25.70;99.90;;;;;;5077923;28;20103;-52
2023/06/11 10:49:17;;;;;;;21.63;15.45;;;25.90;99.90;;;;;;5078555;28;20126;-51
2023/06/11 10:51:44;;;;;;;22.52;15.38;;;25.90;99.90;;;;;;5080592;28;20071;-51
2023/06/11 10:54:09;;;;;;;18.60;14.60;;;25.90;99.90;;;;;;5082655;28;20047;-51
2023/06/11 10:56:38;;;;;;;26.00;14.32;;;25.90;99.90;;;;;;5080191;28;20044;-51
2023/06/11 10:59:10;;;;;;;20.92;13.32;;;25.90;99.60;;;;;;5082045;28;20105;-51
2023/06/11 11:01:36;;;;;;;20.33;15.23;;;25.90;99.40;;;;;;5081405;28;20063;-51
2023/06/11 11:04:03;;;;;;;27.98;13.73;;;26.00;99.30;;;;;;5081769;28;20503;-51
2023/06/11 11:06:29;;;;;;;22.17;14.10;;;26.00;99.30;;;;;;5080815;28;20043;-51
2023/06/11 11:08:56;;;;;;;19.95;14.35;;;26.20;99.40;;;;;;5081728;28;20114;-51
2023/06/11 11:11:23;;;;;;;19.98;12.88;;;26.30;99.10;;;;;;5080932;28;20040;-52
2023/06/11 11:13:50;;;;;;;26.30;15.88;;;26.40;98.40;;;;;;5081498;28;20087;-51
2023/06/11 11:16:18;;;;;;;19.23;14.40;;;26.30;98.10;;;;;;5080203;28;20047;-52
2023/06/11 11:18:46;;;;;;;16.90;12.18;;;26.30;98.40;;;;;;5097282;27;20554;-51
2023/06/11 11:21:12;;;;;;;22.20;13.02;;;26.30;98.30;;;;;;5081663;28;20508;-51
2023/06/11 11:23:38;;;;;;;16.30;11.30;;;26.30;98.20;;;;;;5080867;28;20068;-52
2023/06/11 11:26:04;;;;;;;17.52;12.70;;;26.10;97.80;;;;;;5072172;28;20044;-53
2023/06/11 11:28:32;;;;;;;17.70;11.60;;;26.20;98.30;;;;;;5081379;28;20728;-52
2023/06/11 11:30:59;;;;;;;15.68;11.35;;;26.30;98.00;;;;;;5079862;28;20044;-51
2023/06/11 11:33:25;;;;;;;13.48;10.95;;;26.40;98.10;;;;;;5080892;28;20044;-51
2023/06/11 11:35:56;;;;;;;15.10;11.25;;;26.60;97.90;;;;;;5080355;28;20576;-51
2023/06/11 11:38:22;;;;;;;16.67;10.47;;;26.80;97.70;;;;;;5080399;28;20053;-51
2023/06/11 11:40:57;;;;;;;15.23;10.23;;;26.80;97.40;;;;;;5080733;28;20290;-53
2023/06/11 11:43:23;;;;;;;16.17;10.57;;;26.70;97.10;;;;;;5095650;27;20562;-52
2023/06/11 11:45:49;;;;;;;15.63;9.23;;;26.60;97.00;;;;;;5081050;28;20049;-51
2023/06/11 11:48:16;;;;;;;12.80;9.07;;;26.60;97.00;;;;;;5079248;28;20523;-51
2023/06/11 11:50:44;;;;;;;13.25;8.77;;;26.50;96.90;;;;;;5080756;28;20036;-51
2023/06/11 11:53:15;;;;;;;11.50;8.38;;;26.50;96.90;;;;;;5080917;28;20060;-51
2023/06/11 11:55:45;;;;;;;17.15;9.43;;;26.40;96.80;;;;;;5079253;28;20493;-51
2023/06/11 11:58:17;;;;;;;11.68;9.02;;;26.20;96.70;;;;;;5080464;28;20047;-51
2023/06/11 12:00:51;;;;;;;10.05;7.70;;;26.10;96.90;;;;;;5081284;28;20045;-51
2023/06/11 12:03:21;;;;;;;11.95;7.75;;;26.00;97.10;;;;;;5079656;28;20096;-51
2023/06/11 12:06:01;;;;;;;11.18;7.22;;;26.00;96.90;;;;;;5080008;28;20075;-51
2023/06/11 12:08:29;;;;;;;10.80;7.40;;;26.20;97.00;;;;;;5080486;28;20048;-51
2023/06/11 12:10:55;;;;;;;10.23;8.45;;;26.30;97.10;;;;;;5080602;28;20554;-51
2023/06/11 12:13:21;;;;;;;10.35;7.68;;;26.30;96.90;;;;;;5080439;28;20036;-51
2023/06/11 12:15:47;;;;;;;14.10;9.48;;;26.40;96.80;;;;;;5080588;28;20037;-51
2023/06/11 12:18:14;;;;;;;12.60;9.23;;;26.40;96.80;;;;;;5080699;28;20049;-51
2023/06/11 12:20:40;;;;;;;14.20;8.30;;;26.30;96.50;;;;;;5080821;28;20119;-51
2023/06/11 12:23:06;;;;;;;9.13;7.35;;;26.10;96.40;;;;;;5079562;28;20571;-51
2023/06/11 12:25:33;;;;;;;12.20;7.00;;;26.00;96.40;;;;;;5080584;28;20041;-51
2023/06/11 12:28:02;;;;;;;15.73;12.00;;;25.80;96.50;;;;;;5080800;28;20045;-51
2023/06/11 12:30:30;;;;;;;13.40;9.73;;;25.70;96.70;;;;;;5095809;27;20052;-51